createdAt,value
2022-12-08T00:01:40.468Z,13.83
2022-12-08T00:04:07.961Z,15.00
2022-12-08T00:06:57.624Z,14.50
2022-12-08T00:09:30.007Z,16.23
2022-12-08T00:12:00.467Z,19.33
2022-12-08T00:14:31.606Z,22.53
2022-12-08T00:16:58.889Z,17.00
2022-12-08T00:19:26.287Z,16.67
2022-12-08T00:21:53.507Z,16.50
2022-12-08T00:24:20.836Z,16.03
2022-12-08T00:26:47.966Z,19.53
2022-12-08T00:29:17.505Z,16.43
2022-12-08T00:31:45.032Z,13.10
2022-12-08T00:34:12.938Z,17.70
2022-12-08T00:36:40.162Z,14.67
2022-12-08T00:39:07.250Z,14.93
2022-12-08T00:41:52.962Z,18.40
2022-12-08T00:44:20.169Z,14.40
2022-12-08T00:46:48.388Z,14.50
2022-12-08T00:49:15.765Z,14.70
2022-12-08T00:51:42.919Z,14.47
2022-12-08T00:54:10.148Z,13.97
2022-12-08T00:56:37.268Z,14.33
2022-12-08T00:59:04.825Z,16.40
2022-12-08T01:01:31.993Z,22.70
2022-12-08T01:03:59.093Z,14.07
2022-12-08T01:06:26.250Z,15.00
2022-12-08T01:08:53.445Z,15.47
2022-12-08T01:11:20.595Z,14.57
2022-12-08T01:13:47.733Z,16.87
2022-12-08T01:16:25.072Z,16.83
2022-12-08T01:18:52.173Z,15.70
2022-12-08T01:21:19.347Z,15.80
2022-12-08T01:23:46.548Z,14.60
2022-12-08T01:26:14.174Z,15.57
2022-12-08T01:28:41.301Z,12.23
2022-12-08T01:31:12.806Z,15.30
2022-12-08T01:33:40.185Z,15.90
2022-12-08T01:36:07.397Z,12.97
2022-12-08T01:38:34.468Z,15.67
2022-12-08T01:41:01.626Z,16.50
2022-12-08T01:43:46.239Z,13.43
2022-12-08T01:46:13.361Z,17.33
2022-12-08T01:48:40.486Z,15.90
2022-12-08T01:51:07.590Z,16.90
2022-12-08T01:53:34.764Z,13.47
2022-12-08T01:56:09.794Z,16.87
2022-12-08T01:58:37.182Z,19.20
2022-12-08T02:01:04.417Z,13.70
2022-12-08T02:03:39.446Z,14.20
2022-12-08T02:06:06.774Z,13.63
2022-12-08T02:08:33.889Z,13.93
2022-12-08T02:11:00.961Z,15.03
2022-12-08T02:13:28.108Z,19.20
2022-12-08T02:16:01.324Z,17.43
2022-12-08T02:19:29.089Z,14.97
2022-12-08T02:21:48.439Z,16.97
2022-12-08T02:24:18.582Z,14.00
2022-12-08T02:26:45.663Z,15.17
2022-12-08T02:29:38.990Z,17.13
2022-12-08T02:32:23.772Z,16.97
2022-12-08T02:34:53.869Z,18.30
2022-12-08T02:37:27.011Z,17.10
2022-12-08T02:40:02.596Z,14.93
2022-12-08T02:42:33.342Z,14.10
2022-12-08T02:45:00.402Z,16.33
2022-12-08T02:47:27.515Z,17.30
2022-12-08T02:49:55.613Z,17.10
2022-12-08T02:52:22.682Z,17.20
2022-12-08T02:54:51.270Z,15.47
2022-12-08T02:57:32.154Z,16.67
2022-12-08T03:00:05.656Z,17.17
2022-12-08T03:02:45.033Z,16.53
2022-12-08T03:05:15.034Z,15.60
2022-12-08T03:07:45.280Z,18.10
2022-12-08T03:10:20.437Z,18.20
2022-12-08T03:12:49.587Z,17.57
2022-12-08T03:15:17.662Z,19.73
2022-12-08T03:17:49.993Z,14.53
2022-12-08T03:20:18.287Z,16.40
2022-12-08T03:22:45.502Z,17.90
2022-12-08T03:25:13.748Z,13.77
2022-12-08T03:27:40.848Z,17.17
2022-12-08T03:30:08.265Z,16.67
2022-12-08T03:32:38.478Z,17.50
2022-12-08T03:35:06.910Z,18.83
2022-12-08T03:37:35.339Z,15.20
2022-12-08T03:40:03.329Z,15.60
2022-12-08T03:42:30.633Z,17.93
2022-12-08T03:44:57.708Z,16.60
2022-12-08T03:47:24.874Z,14.27
2022-12-08T03:49:51.983Z,16.10
2022-12-08T03:52:19.084Z,18.40
2022-12-08T03:54:46.180Z,15.43
2022-12-08T03:57:13.365Z,19.00
2022-12-08T03:59:40.473Z,16.63
2022-12-08T04:02:07.603Z,18.40
2022-12-08T04:04:35.144Z,16.53
2022-12-08T04:07:02.254Z,16.10
2022-12-08T04:09:29.338Z,15.40
2022-12-08T04:11:56.434Z,16.30
2022-12-08T04:14:23.566Z,16.33
2022-12-08T04:16:50.670Z,14.90
2022-12-08T04:19:17.772Z,15.20
2022-12-08T04:21:44.945Z,19.43
2022-12-08T04:24:12.024Z,13.87
2022-12-08T04:26:39.176Z,16.53
2022-12-08T04:29:06.268Z,14.10
2022-12-08T04:31:33.527Z,13.97
2022-12-08T04:34:00.658Z,14.50
2022-12-08T04:36:27.741Z,18.87
2022-12-08T04:38:54.881Z,15.20
2022-12-08T04:41:21.971Z,13.00
2022-12-08T04:43:49.082Z,20.33
2022-12-08T04:46:16.280Z,13.83
2022-12-08T04:48:43.462Z,16.77
2022-12-08T04:51:17.236Z,15.77
2022-12-08T04:53:46.763Z,14.37
2022-12-08T04:56:17.810Z,17.00
2022-12-08T04:58:44.973Z,16.23
2022-12-08T05:01:12.287Z,16.20
2022-12-08T05:03:39.391Z,15.50
2022-12-08T05:06:07.009Z,14.33
2022-12-08T05:08:34.226Z,22.70
2022-12-08T05:11:04.822Z,15.97
2022-12-08T05:13:31.970Z,15.30
2022-12-08T05:16:05.192Z,17.70
2022-12-08T05:18:32.390Z,25.90
2022-12-08T05:20:59.721Z,22.00
2022-12-08T05:23:27.033Z,16.70
2022-12-08T05:25:54.152Z,19.00
2022-12-08T05:28:40.685Z,19.60
2022-12-08T05:31:08.447Z,17.50
2022-12-08T05:33:35.550Z,20.17
2022-12-08T05:36:02.744Z,19.07
2022-12-08T05:38:29.887Z,17.73
2022-12-08T05:40:57.030Z,17.30
2022-12-08T05:43:24.123Z,18.20
2022-12-08T05:45:51.282Z,14.90
2022-12-08T05:48:18.445Z,15.00
2022-12-08T05:50:48.895Z,16.20
2022-12-08T05:53:16.567Z,17.70
2022-12-08T05:55:43.696Z,15.83
2022-12-08T05:58:12.205Z,14.97
2022-12-08T06:00:39.459Z,20.30
2022-12-08T06:03:06.736Z,18.13
2022-12-08T06:05:34.315Z,20.33
2022-12-08T06:08:01.535Z,17.30
2022-12-08T06:10:28.845Z,16.87
2022-12-08T06:12:56.042Z,17.33
2022-12-08T06:15:23.141Z,17.13
2022-12-08T06:17:50.282Z,18.20
2022-12-08T06:20:17.447Z,17.77
2022-12-08T06:22:44.570Z,18.60
2022-12-08T06:25:11.641Z,15.07
2022-12-08T06:27:38.880Z,17.40
2022-12-08T06:30:06.696Z,18.60
2022-12-08T06:32:34.121Z,19.07
2022-12-08T06:35:01.322Z,17.30
2022-12-08T06:37:28.714Z,19.73
2022-12-08T06:39:55.857Z,15.70
2022-12-08T06:42:41.747Z,14.53
2022-12-08T06:45:09.101Z,15.10
2022-12-08T06:47:36.242Z,20.00
2022-12-08T06:50:03.744Z,16.23
2022-12-08T06:52:31.102Z,17.13
2022-12-08T06:54:58.189Z,16.83
2022-12-08T06:57:25.744Z,15.17
2022-12-08T06:59:52.845Z,24.53
2022-12-08T07:02:20.051Z,20.43
2022-12-08T07:04:47.513Z,19.93
2022-12-08T07:07:14.629Z,16.40
2022-12-08T07:09:41.733Z,18.70
2022-12-08T07:12:08.833Z,19.40
2022-12-08T07:14:36.007Z,22.97
2022-12-08T07:17:03.207Z,26.93
2022-12-08T07:19:30.330Z,21.87
2022-12-08T07:21:57.457Z,22.63
2022-12-08T07:24:24.608Z,23.60
2022-12-08T07:26:51.696Z,22.10
2022-12-08T07:29:24.585Z,20.87
2022-12-08T07:31:53.220Z,19.70
2022-12-08T07:34:20.304Z,22.73
2022-12-08T07:36:47.403Z,23.07
2022-12-08T07:39:14.469Z,34.93
2022-12-08T07:41:41.557Z,26.10
2022-12-08T07:44:09.319Z,24.43
2022-12-08T07:46:36.515Z,82.73
2022-12-08T07:49:03.651Z,41.47
2022-12-08T07:51:30.794Z,34.03
2022-12-08T07:53:57.860Z,26.50
2022-12-08T07:56:24.979Z,30.67
2022-12-08T07:58:52.065Z,27.57
2022-12-08T08:01:21.957Z,27.97
2022-12-08T08:03:49.323Z,24.90
2022-12-08T08:06:16.448Z,34.03
2022-12-08T08:08:43.605Z,28.43
2022-12-08T08:11:18.919Z,30.00
2022-12-08T08:13:47.862Z,33.23
2022-12-08T08:16:15.070Z,23.70
2022-12-08T08:18:42.272Z,29.00
2022-12-08T08:21:43.329Z,33.20
2022-12-08T08:23:56.472Z,19.50
2022-12-08T08:26:23.571Z,16.43
2022-12-08T08:28:50.726Z,20.60
2022-12-08T08:31:17.859Z,21.00
2022-12-08T08:33:45.034Z,19.43
2022-12-08T08:36:12.239Z,22.70
2022-12-08T08:38:40.106Z,23.87
2022-12-08T08:41:10.570Z,21.73
2022-12-08T08:43:38.817Z,20.27
2022-12-08T08:46:06.723Z,24.77
2022-12-08T08:48:33.928Z,19.97
2022-12-08T08:51:06.941Z,21.57
2022-12-08T08:53:34.071Z,19.30
2022-12-08T08:56:02.915Z,22.73
2022-12-08T08:58:30.341Z,19.97
2022-12-08T09:00:57.431Z,30.67
2022-12-08T09:03:24.595Z,24.70
2022-12-08T09:05:51.864Z,20.87
2022-12-08T09:08:19.114Z,21.73
2022-12-08T09:10:46.254Z,21.27
2022-12-08T09:13:13.412Z,24.03
2022-12-08T09:15:40.587Z,20.93
2022-12-08T09:18:07.967Z,22.53
2022-12-08T09:20:35.535Z,21.07
2022-12-08T09:23:03.830Z,18.57
2022-12-08T09:25:30.927Z,22.40
2022-12-08T09:27:58.087Z,20.00
2022-12-08T09:30:25.233Z,16.70
2022-12-08T09:32:52.331Z,20.10
2022-12-08T09:35:19.418Z,21.20
2022-12-08T09:37:46.540Z,19.90
2022-12-08T09:40:17.218Z,17.70
2022-12-08T09:42:52.299Z,18.93
2022-12-08T09:45:19.529Z,18.87
2022-12-08T09:47:48.738Z,23.20
2022-12-08T09:50:34.604Z,20.90
2022-12-08T09:53:04.543Z,21.07
2022-12-08T09:55:36.833Z,19.47
2022-12-08T09:58:04.010Z,20.20
2022-12-08T10:00:31.237Z,22.33
2022-12-08T10:02:59.951Z,26.33
2022-12-08T10:05:27.300Z,20.27
2022-12-08T10:08:06.678Z,21.33
2022-12-08T10:10:43.859Z,21.30
2022-12-08T10:13:17.221Z,22.37
2022-12-08T10:15:44.380Z,23.33
2022-12-08T10:18:15.741Z,20.80
2022-12-08T10:20:43.322Z,18.30
2022-12-08T10:23:13.263Z,21.23
2022-12-08T10:25:47.010Z,20.57
2022-12-08T10:28:14.277Z,22.83
2022-12-08T10:30:41.488Z,16.67
2022-12-08T10:33:17.765Z,20.47
2022-12-08T10:35:51.697Z,21.83
2022-12-08T10:38:37.305Z,24.30
2022-12-08T10:41:05.751Z,21.50
2022-12-08T10:43:32.916Z,26.10
2022-12-08T10:46:23.064Z,18.00
2022-12-08T10:48:51.624Z,19.00
2022-12-08T10:51:28.214Z,21.80
2022-12-08T10:53:55.370Z,19.57
2022-12-08T10:56:25.094Z,21.57
2022-12-08T10:58:52.213Z,22.73
2022-12-08T11:01:21.019Z,21.10
2022-12-08T11:04:01.071Z,20.23
2022-12-08T11:06:31.268Z,17.27
2022-12-08T11:08:59.019Z,19.33
2022-12-08T11:11:58.773Z,17.03
2022-12-08T11:14:26.890Z,19.40
2022-12-08T11:17:02.410Z,20.00
2022-12-08T11:19:29.539Z,26.53
2022-12-08T11:21:56.624Z,26.50
2022-12-08T11:24:23.736Z,27.73
2022-12-08T11:27:03.997Z,27.77
2022-12-08T11:29:34.830Z,24.43
2022-12-08T11:32:03.589Z,23.17
2022-12-08T11:34:35.462Z,27.90
2022-12-08T11:37:03.172Z,28.40
2022-12-08T11:39:30.278Z,26.03
2022-12-08T11:41:57.464Z,30.57
2022-12-08T11:44:44.822Z,28.23
2022-12-08T11:47:11.906Z,30.37
2022-12-08T11:49:40.221Z,25.03
2022-12-08T11:52:26.269Z,22.80
2022-12-08T11:55:12.148Z,21.63
2022-12-08T11:57:39.285Z,26.07
2022-12-08T12:00:07.016Z,21.20
2022-12-08T12:02:35.247Z,24.13
2022-12-08T12:05:02.370Z,20.80
2022-12-08T12:07:29.511Z,22.57
2022-12-08T12:09:56.582Z,24.13
2022-12-08T12:12:23.661Z,20.63
2022-12-08T12:15:26.405Z,20.57
2022-12-08T12:17:53.516Z,20.40
2022-12-08T12:20:20.648Z,20.63
2022-12-08T12:22:49.540Z,19.93
2022-12-08T12:25:23.789Z,20.90
2022-12-08T12:27:51.247Z,20.53
2022-12-08T12:30:24.793Z,22.20
2022-12-08T12:32:59.346Z,18.90
2022-12-08T12:35:34.055Z,17.80
2022-12-08T12:38:03.270Z,17.50
2022-12-08T12:40:34.795Z,19.77
2022-12-08T12:43:01.901Z,18.87
2022-12-08T12:45:33.088Z,24.40
2022-12-08T12:48:00.207Z,19.77
2022-12-08T12:50:46.340Z,17.90
2022-12-08T12:53:16.457Z,18.93
2022-12-08T12:55:46.510Z,17.70
2022-12-08T12:58:20.592Z,18.70
2022-12-08T13:00:47.670Z,19.30
2022-12-08T13:03:15.262Z,17.90
2022-12-08T13:05:52.175Z,18.60
2022-12-08T13:08:22.771Z,18.60
2022-12-08T13:11:00.787Z,17.73
2022-12-08T13:13:27.943Z,17.73
2022-12-08T13:15:55.017Z,15.83
2022-12-08T13:18:22.218Z,20.40
2022-12-08T13:20:53.254Z,18.90
2022-12-08T13:23:28.379Z,18.67
2022-12-08T13:26:15.129Z,20.37
2022-12-08T13:29:04.596Z,18.93
2022-12-08T13:31:51.987Z,17.03
2022-12-08T13:34:20.525Z,21.07
2022-12-08T13:37:08.053Z,17.90
2022-12-08T13:39:37.988Z,15.97
2022-12-08T13:42:17.157Z,16.93
2022-12-08T13:47:41.506Z,17.40
2022-12-08T13:52:32.775Z,14.10
2022-12-08T13:59:10.086Z,12.70
2022-12-08T14:01:41.110Z,14.33
2022-12-08T14:04:42.190Z,13.37
2022-12-08T14:07:00.824Z,13.10
2022-12-08T14:09:29.850Z,12.93
2022-12-08T14:12:15.660Z,12.50
2022-12-08T14:15:02.353Z,14.30
2022-12-08T14:17:30.659Z,17.03
2022-12-08T14:20:02.110Z,14.37
2022-12-08T14:22:36.107Z,15.00
2022-12-08T14:25:03.508Z,14.73
2022-12-08T14:27:33.611Z,14.60
2022-12-08T14:30:01.202Z,15.90
2022-12-08T14:32:37.499Z,18.03
2022-12-08T14:35:07.744Z,18.70
2022-12-08T14:37:44.782Z,17.50
2022-12-08T14:40:12.136Z,15.20
2022-12-08T14:42:43.643Z,13.13
2022-12-08T14:45:11.519Z,12.53
2022-12-08T14:47:38.646Z,12.27
2022-12-08T14:50:07.460Z,14.77
2022-12-08T14:52:34.899Z,16.10
2022-12-08T14:55:02.050Z,16.90
2022-12-08T14:57:32.062Z,17.23
2022-12-08T14:59:59.217Z,14.13
2022-12-08T15:02:27.507Z,12.70
2022-12-08T15:04:58.764Z,15.33
2022-12-08T15:07:27.211Z,12.63
2022-12-08T15:10:10.016Z,14.40
2022-12-08T15:12:37.181Z,14.10
2022-12-08T15:15:10.424Z,12.83
2022-12-08T15:17:49.610Z,12.83
2022-12-08T15:20:30.178Z,14.40
2022-12-08T15:23:01.863Z,13.57
2022-12-08T15:25:28.958Z,14.23
2022-12-08T15:27:58.984Z,18.10
2022-12-08T15:30:29.734Z,15.30
2022-12-08T15:32:56.905Z,11.13
2022-12-08T15:35:23.972Z,13.53
2022-12-08T15:37:51.163Z,13.97
2022-12-08T15:40:19.133Z,14.97
2022-12-08T15:42:46.241Z,13.10
2022-12-08T15:45:16.396Z,17.10
2022-12-08T15:47:43.632Z,15.63
2022-12-08T15:50:20.552Z,14.40
2022-12-08T15:52:47.770Z,14.87
2022-12-08T15:55:15.419Z,15.67
2022-12-08T15:58:38.246Z,15.60
2022-12-08T16:09:12.546Z,15.37
2022-12-08T16:12:08.412Z,14.03
2022-12-08T16:17:23.984Z,18.43
2022-12-08T16:19:51.145Z,14.63
2022-12-08T16:25:22.319Z,21.57
2022-12-08T16:28:29.292Z,21.27
2022-12-08T16:30:37.878Z,23.70
2022-12-08T16:33:05.003Z,22.97
2022-12-08T16:35:32.109Z,24.93
2022-12-08T16:37:59.281Z,25.13
2022-12-08T16:40:26.370Z,19.10
2022-12-08T16:42:53.530Z,20.20
2022-12-08T16:45:24.634Z,21.73
2022-12-08T16:48:10.373Z,20.63
2022-12-08T16:50:37.537Z,23.77
2022-12-08T16:53:09.186Z,21.53
2022-12-08T16:55:36.264Z,21.73
2022-12-08T16:58:03.705Z,28.43
2022-12-08T17:00:30.995Z,20.60
2022-12-08T17:02:58.920Z,24.17
2022-12-08T17:05:26.160Z,19.10
2022-12-08T17:07:53.566Z,20.03
2022-12-08T17:10:23.095Z,17.83
2022-12-08T17:12:50.311Z,19.20
2022-12-08T17:15:18.491Z,19.13
2022-12-08T17:17:45.675Z,20.70
2022-12-08T17:20:14.788Z,19.20
2022-12-08T17:22:41.905Z,18.60
2022-12-08T17:25:09.162Z,23.30
2022-12-08T17:27:36.578Z,17.87
2022-12-08T17:30:04.707Z,18.47
2022-12-08T17:32:32.054Z,21.97
2022-12-08T17:34:59.169Z,24.10
2022-12-08T17:37:26.558Z,22.90
2022-12-08T17:39:53.645Z,27.93
2022-12-08T17:42:25.821Z,26.70
2022-12-08T17:44:53.146Z,27.33
2022-12-08T17:47:20.374Z,24.73
2022-12-08T17:49:47.473Z,19.60
2022-12-08T17:52:14.558Z,19.83
2022-12-08T17:54:41.729Z,23.07
2022-12-08T17:57:08.853Z,23.53
2022-12-08T17:59:35.918Z,23.10
2022-12-08T18:02:04.357Z,18.23
2022-12-08T18:04:31.617Z,18.40
2022-12-08T18:07:01.199Z,17.63
2022-12-08T18:09:30.058Z,23.03
2022-12-08T18:11:57.244Z,20.70
2022-12-08T18:14:24.311Z,19.33
2022-12-08T18:16:51.560Z,16.40
2022-12-08T18:19:18.731Z,22.30
2022-12-08T18:21:45.922Z,22.67
2022-12-08T18:24:20.804Z,31.23
2022-12-08T18:26:47.936Z,25.13
2022-12-08T18:29:15.138Z,19.80
2022-12-08T18:31:42.257Z,30.83
2022-12-08T18:34:09.415Z,35.10
2022-12-08T18:36:36.512Z,25.20
2022-12-08T18:39:08.900Z,23.93
2022-12-08T18:41:37.960Z,24.10
2022-12-08T18:44:05.261Z,28.23
2022-12-08T18:46:32.495Z,24.30
2022-12-08T18:49:00.005Z,26.43
2022-12-08T18:51:27.190Z,38.50
2022-12-08T18:53:54.331Z,31.67
2022-12-08T18:56:26.123Z,29.03
2022-12-08T18:58:56.263Z,22.80
2022-12-08T19:01:25.752Z,25.30
2022-12-08T19:04:20.000Z,27.80
2022-12-08T19:06:40.339Z,24.80
2022-12-08T19:09:12.532Z,23.13
2022-12-08T19:11:39.654Z,20.87
2022-12-08T19:14:07.302Z,17.20
2022-12-08T19:16:34.518Z,22.20
2022-12-08T19:19:01.782Z,22.03
2022-12-08T19:21:28.931Z,19.43
2022-12-08T19:23:58.223Z,17.93
2022-12-08T19:26:25.821Z,25.97
2022-12-08T19:28:52.993Z,26.90
2022-12-08T19:31:20.202Z,22.33
2022-12-08T19:33:47.345Z,20.30
2022-12-08T19:36:15.251Z,20.90
2022-12-08T19:39:00.971Z,25.20
2022-12-08T19:41:47.250Z,20.47
2022-12-08T19:44:43.043Z,20.97
2022-12-08T19:47:10.288Z,26.80
2022-12-08T19:49:37.574Z,25.33
2022-12-08T19:52:05.079Z,23.10
2022-12-08T19:54:32.229Z,26.57
2022-12-08T19:56:59.338Z,22.60
2022-12-08T19:59:26.513Z,22.00
2022-12-08T20:01:57.099Z,25.97
2022-12-08T20:04:24.930Z,27.60
2022-12-08T20:06:52.565Z,20.93
2022-12-08T20:09:19.853Z,20.70
2022-12-08T20:11:46.944Z,23.40
2022-12-08T20:14:14.029Z,21.90
2022-12-08T20:16:41.713Z,21.67
2022-12-08T20:19:09.110Z,22.23
2022-12-08T20:21:36.366Z,23.00
2022-12-08T20:24:04.643Z,36.33
2022-12-08T20:26:31.791Z,29.67
2022-12-08T20:28:58.977Z,46.83
2022-12-08T20:31:27.043Z,25.33
2022-12-08T20:33:54.399Z,21.97
2022-12-08T20:36:21.648Z,21.27
2022-12-08T20:38:49.272Z,19.67
2022-12-08T20:41:16.382Z,20.87
2022-12-08T20:43:44.009Z,22.60
2022-12-08T20:46:11.544Z,19.93
2022-12-08T20:48:38.732Z,17.30
2022-12-08T20:51:05.932Z,17.40
2022-12-08T20:53:33.298Z,23.27
2022-12-08T20:56:00.545Z,21.23
2022-12-08T20:58:27.653Z,23.17
2022-12-08T21:00:54.842Z,20.23
2022-12-08T21:03:22.619Z,19.00
2022-12-08T21:05:50.711Z,19.47
2022-12-08T21:08:19.516Z,17.30
2022-12-08T21:10:47.022Z,17.00
2022-12-08T21:13:14.231Z,22.23
2022-12-08T21:15:45.480Z,21.80
2022-12-08T21:18:12.765Z,18.00
2022-12-08T21:20:39.973Z,16.50
2022-12-08T21:23:07.153Z,21.33
2022-12-08T21:25:34.467Z,14.90
2022-12-08T21:28:01.833Z,33.00
2022-12-08T21:30:28.962Z,19.80
2022-12-08T21:32:56.108Z,21.07
2022-12-08T21:35:23.374Z,20.70
2022-12-08T21:37:50.468Z,16.20
2022-12-08T21:40:18.036Z,17.87
2022-12-08T21:42:45.514Z,29.53
2022-12-08T21:45:13.510Z,25.43
2022-12-08T21:47:40.853Z,24.23
2022-12-08T21:50:08.395Z,27.20
2022-12-08T21:52:39.128Z,34.47
2022-12-08T21:55:06.578Z,24.57
2022-12-08T21:57:33.914Z,20.40
2022-12-08T22:00:01.048Z,21.67
2022-12-08T22:02:28.487Z,24.20
2022-12-08T22:04:56.099Z,22.80
2022-12-08T22:07:23.456Z,27.53
2022-12-08T22:09:50.702Z,58.17
2022-12-08T22:12:17.908Z,50.13
2022-12-08T22:14:45.067Z,28.90
2022-12-08T22:17:12.451Z,23.17
2022-12-08T22:19:39.772Z,30.97
2022-12-08T22:22:07.184Z,36.47
2022-12-08T22:24:34.406Z,25.60
2022-12-08T22:27:01.631Z,25.80
2022-12-08T22:29:29.303Z,26.03
2022-12-08T22:31:56.658Z,26.70
2022-12-08T22:34:23.918Z,25.27
2022-12-08T22:36:51.181Z,23.93
2022-12-08T22:39:18.449Z,20.30
2022-12-08T22:41:45.862Z,25.40
2022-12-08T22:44:13.386Z,37.43
2022-12-08T22:46:40.665Z,28.03
2022-12-08T22:49:07.957Z,23.20
2022-12-08T22:51:38.904Z,23.43
2022-12-08T22:54:06.143Z,25.90
2022-12-08T22:56:33.370Z,22.03
2022-12-08T22:59:00.550Z,22.00
2022-12-08T23:01:29.509Z,19.93
2022-12-08T23:03:56.989Z,19.70
2022-12-08T23:06:24.941Z,20.03
2022-12-08T23:08:52.301Z,19.37
2022-12-08T23:11:19.582Z,20.97
2022-12-08T23:13:46.742Z,24.23
2022-12-08T23:16:13.996Z,19.70
2022-12-08T23:18:42.048Z,21.00
2022-12-08T23:21:11.298Z,22.07
2022-12-08T23:23:38.593Z,19.10
2022-12-08T23:26:05.893Z,22.43
2022-12-08T23:28:33.004Z,22.63
2022-12-08T23:31:00.074Z,23.47
2022-12-08T23:33:27.253Z,22.13
2022-12-08T23:35:57.691Z,19.83
2022-12-08T23:38:25.341Z,28.60
2022-12-08T23:40:52.723Z,22.73
2022-12-08T23:43:20.108Z,20.63
2022-12-08T23:45:47.789Z,21.07
2022-12-08T23:48:15.046Z,23.67
2022-12-08T23:50:42.370Z,21.00
2022-12-08T23:53:09.564Z,22.97
2022-12-08T23:55:36.714Z,18.03
2022-12-08T23:58:04.191Z,23.77
